Time;durP1;ratioP1;P1;durP2;ratioP2;P2;SDS_P1;SDS_P2;PMS_P1;PMS_P2;Temp;Humidity;BMP_temperature;BMP_pressure;BME280_temperature;BME280_humidity;BME280_pressure;Samples;Min_cycle;Max_cycle;Signal;HPM_P1;HPM_P2
2023/01/08 00:01:11;;;;;;;;;;;23.10;36.80;;;;;;465600;252;2201;-45
2023/01/08 00:03:13;;;;;;;;;;;23.10;36.70;;;;;;475663;249;1948;-45
2023/01/08 00:05:14;;;;;;;;;;;23.20;36.80;;;;;;457933;256;1954;-45
2023/01/08 00:07:15;;;;;;;;;;;23.20;36.70;;;;;;465660;252;2075;-45
2023/01/08 00:09:16;;;;;;;;;;;23.20;36.60;;;;;;475632;249;1811;-44
2023/01/08 00:11:18;;;;;;;;;;;23.20;36.60;;;;;;457942;256;1910;-45
2023/01/08 00:13:19;;;;;;;;;;;23.30;36.50;;;;;;465629;252;2259;-44
2023/01/08 00:15:20;;;;;;;;;;;23.30;36.50;;;;;;475623;249;2005;-44
2023/01/08 00:17:22;;;;;;;;;;;23.30;36.40;;;;;;457947;257;1851;-45
2023/01/08 00:19:23;;;;;;;;;;;23.30;36.40;;;;;;465583;252;2213;-45
2023/01/08 00:21:24;;;;;;;;;;;23.30;36.30;;;;;;475608;249;1736;-44
2023/01/08 00:23:26;;;;;;;;;;;23.30;36.30;;;;;;457928;257;1770;-45
2023/01/08 00:25:27;;;;;;;;;;;23.40;36.40;;;;;;465643;252;2043;-45
2023/01/08 00:27:28;;;;;;;;;;;23.40;36.30;;;;;;475601;249;1817;-45
2023/01/08 00:29:30;;;;;;;;;;;23.40;36.20;;;;;;457963;257;1898;-44
2023/01/08 00:31:31;;;;;;;;;;;23.40;36.30;;;;;;465597;252;1752;-45
2023/01/08 00:33:32;;;;;;;;;;;23.40;36.20;;;;;;475704;249;1987;-45
2023/01/08 00:35:34;;;;;;;;;;;23.40;36.30;;;;;;457966;257;2020;-44
2023/01/08 00:37:35;;;;;;;;;;;23.30;36.40;;;;;;465570;252;1748;-44
2023/01/08 00:39:36;;;;;;;;;;;23.00;36.80;;;;;;475555;249;2192;-44
2023/01/08 00:41:38;;;;;;;;;;;22.80;37.30;;;;;;457930;257;1756;-44
2023/01/08 00:43:39;;;;;;;;;;;22.50;37.70;;;;;;465522;252;1959;-44
2023/01/08 00:45:40;;;;;;;;;;;22.30;38.10;;;;;;475619;249;1832;-44
2023/01/08 00:47:42;;;;;;;;;;;22.10;38.50;;;;;;457979;256;1806;-45
2023/01/08 00:49:43;;;;;;;;;;;22.00;38.80;;;;;;465612;252;1843;-44
2023/01/08 00:51:44;;;;;;;;;;;21.90;39.00;;;;;;475672;249;1776;-44
2023/01/08 00:53:46;;;;;;;;;;;21.80;39.20;;;;;;457906;257;2219;-44
2023/01/08 00:55:47;;;;;;;;;;;21.60;39.30;;;;;;465575;252;1807;-45
2023/01/08 00:57:48;;;;;;;;;;;21.60;39.50;;;;;;475601;249;1716;-44
2023/01/08 00:59:50;;;;;;;;;;;21.50;39.60;;;;;;457904;257;2174;-44
2023/01/08 01:01:53;;;;;;;;;;;21.40;39.80;;;;;;465595;252;2022;-45
2023/01/08 01:03:52;;;;;;;;;;;21.40;39.80;;;;;;475511;250;2221;-44
2023/01/08 01:05:54;;;;;;;;;;;21.40;39.90;;;;;;457904;257;1950;-44
2023/01/08 01:07:55;;;;;;;;;;;21.30;40.00;;;;;;465492;252;1909;-44
2023/01/08 01:09:56;;;;;;;;;;;21.30;40.10;;;;;;475579;249;1873;-44
2023/01/08 01:11:58;;;;;;;;;;;21.30;40.20;;;;;;457987;256;2206;-45
2023/01/08 01:13:59;;;;;;;;;;;21.20;40.20;;;;;;465699;252;2121;-44
2023/01/08 01:16:00;;;;;;;;;;;21.20;40.30;;;;;;475593;249;1723;-45
2023/01/08 01:18:02;;;;;;;;;;;21.10;40.40;;;;;;457859;257;1700;-44
2023/01/08 01:20:03;;;;;;;;;;;21.10;40.40;;;;;;465596;252;2292;-44
2023/01/08 01:22:04;;;;;;;;;;;21.10;40.40;;;;;;475561;249;1739;-44
2023/01/08 01:24:06;;;;;;;;;;;21.10;40.40;;;;;;457987;256;1736;-44
2023/01/08 01:26:07;;;;;;;;;;;21.30;40.10;;;;;;465746;252;2528;-44
2023/01/08 01:28:08;;;;;;;;;;;21.60;39.50;;;;;;475641;249;1756;-45
2023/01/08 01:30:10;;;;;;;;;;;21.80;39.10;;;;;;458015;256;1798;-45
2023/01/08 01:32:11;;;;;;;;;;;22.00;38.70;;;;;;465570;249;1736;-45
2023/01/08 01:34:12;;;;;;;;;;;22.20;38.40;;;;;;475693;249;1905;-44
2023/01/08 01:36:14;;;;;;;;;;;22.30;38.20;;;;;;457903;256;1750;-45
2023/01/08 01:38:15;;;;;;;;;;;22.40;38.00;;;;;;465544;252;1910;-44
2023/01/08 01:40:16;;;;;;;;;;;22.50;37.80;;;;;;475600;249;2209;-45
2023/01/08 01:44:38;;;;;;;;;;;22.60;37.50;;;;;;465488;256;1710;-44
2023/01/08 01:46:40;;;;;;;;;;;22.70;37.40;;;;;;475548;249;1702;-45
2023/01/08 01:48:41;;;;;;;;;;;22.80;37.30;;;;;;457905;257;1756;-44
2023/01/08 01:50:42;;;;;;;;;;;22.80;37.20;;;;;;465572;252;1930;-46
2023/01/08 01:52:44;;;;;;;;;;;22.90;37.10;;;;;;475672;249;2143;-45
2023/01/08 01:54:45;;;;;;;;;;;22.90;37.00;;;;;;457940;256;1964;-44
2023/01/08 01:56:46;;;;;;;;;;;22.90;37.00;;;;;;465592;252;1671;-44
2023/01/08 01:58:47;;;;;;;;;;;23.00;36.90;;;;;;475673;249;1869;-45
2023/01/08 02:00:49;;;;;;;;;;;23.00;36.90;;;;;;457855;256;2221;-45
2023/01/08 02:02:50;;;;;;;;;;;23.10;36.80;;;;;;465665;252;1884;-45
2023/01/08 02:04:51;;;;;;;;;;;23.10;36.70;;;;;;475582;249;1900;-44
2023/01/08 02:06:53;;;;;;;;;;;23.10;36.70;;;;;;458010;256;1749;-45
2023/01/08 02:08:54;;;;;;;;;;;23.20;36.70;;;;;;465509;252;1712;-45
2023/01/08 02:10:55;;;;;;;;;;;23.20;36.60;;;;;;475597;249;1726;-45
2023/01/08 02:12:57;;;;;;;;;;;23.20;36.50;;;;;;457922;256;2069;-44
2023/01/08 02:14:58;;;;;;;;;;;23.20;36.40;;;;;;465621;252;1762;-45
2023/01/08 02:16:59;;;;;;;;;;;23.30;36.50;;;;;;475552;249;1766;-45
2023/01/08 02:19:01;;;;;;;;;;;23.30;36.40;;;;;;457911;256;1951;-45
2023/01/08 02:21:02;;;;;;;;;;;23.30;36.40;;;;;;465670;252;2208;-44
2023/01/08 02:23:03;;;;;;;;;;;23.30;36.30;;;;;;475714;249;1945;-45
2023/01/08 02:25:05;;;;;;;;;;;23.30;36.30;;;;;;457937;256;1824;-45
2023/01/08 02:27:06;;;;;;;;;;;23.40;36.30;;;;;;465565;252;2126;-45
2023/01/08 02:29:07;;;;;;;;;;;23.40;36.30;;;;;;475650;249;2405;-44
2023/01/08 02:31:09;;;;;;;;;;;23.40;36.20;;;;;;457986;257;1967;-45
2023/01/08 02:33:10;;;;;;;;;;;23.40;36.20;;;;;;465644;252;2071;-45
2023/01/08 02:35:11;;;;;;;;;;;23.40;36.20;;;;;;475562;249;2087;-45
2023/01/08 02:37:13;;;;;;;;;;;23.40;36.20;;;;;;457884;256;1735;-45
2023/01/08 02:39:14;;;;;;;;;;;23.30;36.30;;;;;;465612;252;1944;-44
2023/01/08 02:41:16;;;;;;;;;;;23.00;36.80;;;;;;475719;249;2184;-44
2023/01/08 02:43:17;;;;;;;;;;;22.70;37.30;;;;;;457976;256;2209;-45
2023/01/08 02:45:18;;;;;;;;;;;22.40;37.80;;;;;;465698;252;1726;-45
2023/01/08 02:47:19;;;;;;;;;;;22.20;38.20;;;;;;475613;249;1863;-45
2023/01/08 02:49:21;;;;;;;;;;;22.00;38.50;;;;;;457889;257;1890;-44
2023/01/08 02:51:23;;;;;;;;;;;21.90;38.80;;;;;;465638;252;2189;-45
2023/01/08 02:53:24;;;;;;;;;;;21.80;38.90;;;;;;475558;249;1672;-44
2023/01/08 02:55:26;;;;;;;;;;;21.70;39.10;;;;;;457944;257;1771;-44
2023/01/08 02:57:27;;;;;;;;;;;21.70;39.30;;;;;;465613;252;1825;-44
2023/01/08 02:59:28;;;;;;;;;;;21.60;39.40;;;;;;475599;249;1990;-45
2023/01/08 03:01:30;;;;;;;;;;;21.50;39.50;;;;;;457799;257;2215;-45
2023/01/08 03:03:31;;;;;;;;;;;21.50;39.60;;;;;;465631;252;1864;-44
2023/01/08 03:05:33;;;;;;;;;;;21.40;39.70;;;;;;475589;249;2179;-44
2023/01/08 03:07:34;;;;;;;;;;;21.40;39.80;;;;;;457813;257;1908;-45
2023/01/08 03:09:35;;;;;;;;;;;21.30;39.90;;;;;;465618;252;2152;-45
2023/01/08 03:11:37;;;;;;;;;;;21.30;40.00;;;;;;475456;249;1832;-44
2023/01/08 03:13:38;;;;;;;;;;;21.20;40.00;;;;;;458020;256;1849;-44
2023/01/08 03:15:39;;;;;;;;;;;21.20;40.10;;;;;;465625;252;2417;-45
2023/01/08 03:17:40;;;;;;;;;;;21.20;40.10;;;;;;475509;249;1761;-44
2023/01/08 03:19:42;;;;;;;;;;;21.30;40.20;;;;;;458006;256;1999;-44
2023/01/08 03:21:43;;;;;;;;;;;21.40;39.70;;;;;;465404;252;2205;-45
2023/01/08 03:23:44;;;;;;;;;;;21.70;39.20;;;;;;475570;249;1757;-44
2023/01/08 03:25:46;;;;;;;;;;;22.00;38.80;;;;;;457834;257;1804;-44
2023/01/08 03:27:47;;;;;;;;;;;22.10;38.40;;;;;;465545;252;1957;-44
2023/01/08 03:29:48;;;;;;;;;;;22.30;38.20;;;;;;475603;249;1898;-45
2023/01/08 03:31:50;;;;;;;;;;;22.40;37.90;;;;;;457886;255;2707;-45
2023/01/08 03:33:51;;;;;;;;;;;22.50;37.80;;;;;;465589;252;2063;-45
2023/01/08 03:35:52;;;;;;;;;;;22.50;37.60;;;;;;475505;249;1762;-45
2023/01/08 03:37:54;;;;;;;;;;;22.60;37.60;;;;;;457908;257;1845;-45
2023/01/08 03:39:55;;;;;;;;;;;22.60;37.50;;;;;;465582;252;2229;-45
2023/01/08 03:41:56;;;;;;;;;;;22.40;37.80;;;;;;475631;249;2573;-44
2023/01/08 03:43:58;;;;;;;;;;;22.10;38.10;;;;;;457900;257;1787;-44
2023/01/08 03:45:59;;;;;;;;;;;21.90;38.60;;;;;;465542;252;2115;-44
2023/01/08 03:48:01;;;;;;;;;;;21.70;38.90;;;;;;475574;249;2161;-44
2023/01/08 03:50:02;;;;;;;;;;;21.60;39.20;;;;;;457904;257;1981;-45
2023/01/08 03:52:03;;;;;;;;;;;21.50;39.40;;;;;;465645;252;1738;-44
2023/01/08 03:54:04;;;;;;;;;;;21.40;39.60;;;;;;475569;249;1854;-44
2023/01/08 03:56:06;;;;;;;;;;;21.30;39.60;;;;;;457988;256;1688;-44
2023/01/08 03:58:07;;;;;;;;;;;21.30;39.80;;;;;;465654;252;1802;-44
2023/01/08 04:00:08;;;;;;;;;;;21.20;40.00;;;;;;475594;249;1846;-44
2023/01/08 04:02:10;;;;;;;;;;;21.20;40.10;;;;;;457917;256;2201;-45
2023/01/08 04:04:11;;;;;;;;;;;21.20;40.10;;;;;;465697;252;1928;-45
2023/01/08 04:06:12;;;;;;;;;;;21.10;40.10;;;;;;475641;249;1963;-45
2023/01/08 04:08:14;;;;;;;;;;;21.10;40.20;;;;;;457912;257;1846;-45
2023/01/08 04:10:15;;;;;;;;;;;21.10;40.30;;;;;;465560;252;2201;-44
2023/01/08 04:12:16;;;;;;;;;;;21.00;40.30;;;;;;475658;249;1899;-45
2023/01/08 04:14:18;;;;;;;;;;;21.20;40.10;;;;;;457896;256;1815;-44
2023/01/08 04:16:19;;;;;;;;;;;21.50;39.70;;;;;;465677;252;1960;-44
2023/01/08 04:18:20;;;;;;;;;;;21.70;39.10;;;;;;475620;249;1894;-45
2023/01/08 04:20:22;;;;;;;;;;;21.90;38.70;;;;;;457859;257;1931;-45
2023/01/08 04:22:23;;;;;;;;;;;22.10;38.50;;;;;;465591;252;2229;-45
2023/01/08 04:24:24;;;;;;;;;;;22.20;38.20;;;;;;475643;249;2080;-44
2023/01/08 04:26:26;;;;;;;;;;;22.30;38.00;;;;;;457919;256;1849;-44
2023/01/08 04:28:27;;;;;;;;;;;22.40;37.80;;;;;;465530;252;2642;-44
2023/01/08 04:30:28;;;;;;;;;;;22.50;37.60;;;;;;475608;249;1945;-45
2023/01/08 04:32:30;;;;;;;;;;;22.60;37.50;;;;;;457880;256;1802;-45
2023/01/08 04:34:31;;;;;;;;;;;22.60;37.30;;;;;;465599;252;2216;-45
2023/01/08 04:36:32;;;;;;;;;;;22.70;37.30;;;;;;475546;249;1800;-45
2023/01/08 04:38:34;;;;;;;;;;;22.70;37.10;;;;;;457937;257;1868;-44
2023/01/08 04:40:35;;;;;;;;;;;22.80;37.10;;;;;;465598;252;1734;-45
2023/01/08 04:42:36;;;;;;;;;;;22.80;37.00;;;;;;475629;249;2184;-45
2023/01/08 04:44:38;;;;;;;;;;;22.90;36.90;;;;;;457908;257;1797;-44
2023/01/08 04:46:39;;;;;;;;;;;22.90;36.80;;;;;;465566;252;1713;-45
2023/01/08 04:48:40;;;;;;;;;;;22.90;36.70;;;;;;475630;249;1862;-45
2023/01/08 04:50:42;;;;;;;;;;;23.00;36.70;;;;;;457965;256;1729;-44
2023/01/08 04:52:43;;;;;;;;;;;23.00;36.60;;;;;;465581;252;1808;-45
2023/01/08 04:54:44;;;;;;;;;;;23.10;36.60;;;;;;475616;249;1792;-44
2023/01/08 04:56:46;;;;;;;;;;;23.10;36.60;;;;;;457919;257;2258;-45
2023/01/08 04:58:47;;;;;;;;;;;23.10;36.50;;;;;;465655;252;2114;-45
2023/01/08 05:00:48;;;;;;;;;;;23.10;36.50;;;;;;475600;249;2012;-45
2023/01/08 05:02:50;;;;;;;;;;;23.10;36.40;;;;;;457869;255;2190;-44
2023/01/08 05:04:51;;;;;;;;;;;23.20;36.40;;;;;;465592;252;1721;-45
2023/01/08 05:06:52;;;;;;;;;;;23.20;36.30;;;;;;475454;249;1869;-45
2023/01/08 05:08:54;;;;;;;;;;;23.20;36.30;;;;;;457976;256;2224;-44
2023/01/08 05:10:55;;;;;;;;;;;23.30;36.30;;;;;;465624;252;1711;-44
2023/01/08 05:12:56;;;;;;;;;;;23.30;36.20;;;;;;475488;249;1958;-45
2023/01/08 05:14:58;;;;;;;;;;;23.30;36.20;;;;;;457930;256;1948;-45
2023/01/08 05:16:59;;;;;;;;;;;23.30;36.20;;;;;;465447;252;1677;-45
2023/01/08 05:19:00;;;;;;;;;;;23.30;36.10;;;;;;475592;249;1935;-45
2023/01/08 05:21:02;;;;;;;;;;;23.40;36.20;;;;;;457943;256;1965;-45
2023/01/08 05:23:03;;;;;;;;;;;23.40;36.20;;;;;;465679;252;2289;-45
2023/01/08 05:25:05;;;;;;;;;;;23.40;36.10;;;;;;475604;249;1877;-45
2023/01/08 05:27:06;;;;;;;;;;;23.40;36.00;;;;;;457866;257;1813;-45
2023/01/08 05:29:07;;;;;;;;;;;23.40;36.00;;;;;;465553;252;2514;-45
2023/01/08 05:31:10;;;;;;;;;;;23.40;36.00;;;;;;475593;249;2084;-45
2023/01/08 05:33:10;;;;;;;;;;;23.40;36.00;;;;;;457882;257;2228;-45
2023/01/08 05:35:11;;;;;;;;;;;23.50;36.00;;;;;;465641;252;1732;-45
2023/01/08 05:37:12;;;;;;;;;;;23.50;36.00;;;;;;475586;249;1816;-45
2023/01/08 05:39:14;;;;;;;;;;;23.50;36.00;;;;;;457932;257;1738;-45
2023/01/08 05:41:15;;;;;;;;;;;23.40;36.00;;;;;;465577;252;2092;-45
2023/01/08 05:43:16;;;;;;;;;;;23.10;36.40;;;;;;475590;249;2129;-44
2023/01/08 05:45:18;;;;;;;;;;;22.80;36.80;;;;;;457904;255;2416;-44
2023/01/08 05:47:19;;;;;;;;;;;22.50;37.40;;;;;;465646;252;2231;-45
2023/01/08 05:49:22;;;;;;;;;;;22.30;37.90;;;;;;475578;249;1746;-44
2023/01/08 05:51:22;;;;;;;;;;;22.10;38.20;;;;;;457839;259;1904;-45
2023/01/08 05:53:24;;;;;;;;;;;22.00;38.60;;;;;;465554;252;1983;-44
2023/01/08 05:55:25;;;;;;;;;;;21.80;38.80;;;;;;475604;249;2150;-44
2023/01/08 05:57:26;;;;;;;;;;;21.70;39.00;;;;;;457802;256;1795;-44
2023/01/08 05:59:28;;;;;;;;;;;21.60;39.10;;;;;;465611;252;1801;-44
2023/01/08 06:01:29;;;;;;;;;;;21.50;39.30;;;;;;475476;249;2183;-44
2023/01/08 06:03:30;;;;;;;;;;;21.50;39.40;;;;;;457946;256;2180;-44
2023/01/08 06:05:32;;;;;;;;;;;21.40;39.50;;;;;;465474;252;1992;-44
2023/01/08 06:07:33;;;;;;;;;;;21.40;39.60;;;;;;475436;249;2056;-44
2023/01/08 06:09:34;;;;;;;;;;;21.30;39.60;;;;;;457880;257;1772;-45
2023/01/08 06:11:35;;;;;;;;;;;21.30;39.70;;;;;;465404;252;2137;-44
2023/01/08 06:13:37;;;;;;;;;;;21.30;39.80;;;;;;475560;249;1777;-45
2023/01/08 06:15:39;;;;;;;;;;;21.20;39.90;;;;;;457869;257;1769;-45
2023/01/08 06:17:40;;;;;;;;;;;21.20;40.00;;;;;;465490;252;1779;-44
2023/01/08 06:19:41;;;;;;;;;;;21.20;40.10;;;;;;475569;249;1776;-44
2023/01/08 06:21:43;;;;;;;;;;;21.20;40.00;;;;;;457843;257;2189;-44
2023/01/08 06:23:44;;;;;;;;;;;21.10;40.10;;;;;;465529;252;1692;-44
2023/01/08 06:25:45;;;;;;;;;;;21.00;40.20;;;;;;475618;249;1766;-44
2023/01/08 06:27:47;;;;;;;;;;;21.10;40.30;;;;;;457804;257;1968;-44
2023/01/08 06:29:48;;;;;;;;;;;21.20;40.20;;;;;;465579;252;1997;-44
2023/01/08 06:31:49;;;;;;;;;;;21.40;39.70;;;;;;475416;249;1884;-45
2023/01/08 06:33:51;;;;;;;;;;;21.70;39.20;;;;;;457956;257;2158;-44
2023/01/08 06:35:52;;;;;;;;;;;21.90;38.80;;;;;;465482;252;2171;-44
2023/01/08 06:37:53;;;;;;;;;;;22.00;38.40;;;;;;475504;249;1961;-45
2023/01/08 06:39:55;;;;;;;;;;;22.20;38.10;;;;;;457913;257;1952;-45
2023/01/08 06:41:56;;;;;;;;;;;22.30;37.90;;;;;;465450;252;2193;-45
2023/01/08 06:43:57;;;;;;;;;;;22.40;37.70;;;;;;475603;249;2194;-45
2023/01/08 06:45:58;;;;;;;;;;;22.50;37.60;;;;;;457783;257;1737;-44
2023/01/08 06:48:00;;;;;;;;;;;22.60;37.40;;;;;;465445;252;1825;-45
2023/01/08 06:50:01;;;;;;;;;;;22.60;37.30;;;;;;475543;249;1858;-45
2023/01/08 06:52:02;;;;;;;;;;;22.70;37.20;;;;;;457812;257;2016;-44
2023/01/08 06:54:04;;;;;;;;;;;22.80;37.10;;;;;;465556;252;2159;-44
2023/01/08 06:56:08;;;;;;;;;;;22.80;37.00;;;;;;475642;249;1722;-45
2023/01/08 06:58:06;;;;;;;;;;;22.90;36.90;;;;;;457871;259;2001;-45
2023/01/08 07:00:08;;;;;;;;;;;22.90;36.80;;;;;;465542;252;1751;-45
2023/01/08 07:02:09;;;;;;;;;;;23.00;36.80;;;;;;475691;249;2183;-44
2023/01/08 07:04:10;;;;;;;;;;;23.00;36.70;;;;;;457933;257;2003;-45
2023/01/08 07:06:12;;;;;;;;;;;23.00;36.60;;;;;;465561;252;1979;-45
2023/01/08 07:08:13;;;;;;;;;;;23.00;36.60;;;;;;475489;250;1786;-44
2023/01/08 07:10:14;;;;;;;;;;;23.10;36.50;;;;;;475605;249;1847;-45
2023/01/08 07:12:16;;;;;;;;;;;23.10;36.40;;;;;;475614;249;2164;-44
2023/01/08 07:14:17;;;;;;;;;;;23.20;36.40;;;;;;475632;249;1824;-45
2023/01/08 07:16:18;;;;;;;;;;;23.20;36.40;;;;;;475646;249;2137;-44
2023/01/08 07:18:20;;;;;;;;;;;23.20;36.30;;;;;;475580;249;1957;-45
2023/01/08 07:20:21;;;;;;;;;;;23.20;36.20;;;;;;475552;249;1865;-45
2023/01/08 07:22:24;;;;;;;;;;;23.30;36.20;;;;;;475571;249;2165;-45
2023/01/08 07:24:24;;;;;;;;;;;23.30;36.20;;;;;;475484;250;1736;-44
2023/01/08 07:26:25;;;;;;;;;;;23.30;36.20;;;;;;475583;248;2359;-45
2023/01/08 07:28:26;;;;;;;;;;;23.30;36.10;;;;;;475586;249;1981;-44
2023/01/08 07:30:28;;;;;;;;;;;23.30;36.10;;;;;;475605;249;1925;-45
2023/01/08 07:32:29;;;;;;;;;;;23.30;36.10;;;;;;475622;249;1710;-45
2023/01/08 07:34:31;;;;;;;;;;;23.40;36.10;;;;;;475554;249;1702;-45
2023/01/08 07:36:32;;;;;;;;;;;23.40;36.10;;;;;;475536;249;3173;-45
2023/01/08 07:38:33;;;;;;;;;;;23.40;36.00;;;;;;475535;249;1742;-45
2023/01/08 07:40:35;;;;;;;;;;;23.40;35.90;;;;;;475575;249;2118;-45
2023/01/08 07:42:36;;;;;;;;;;;23.50;36.00;;;;;;475572;249;2196;-45
2023/01/08 07:44:38;;;;;;;;;;;23.40;36.00;;;;;;475520;249;2117;-45
2023/01/08 07:46:39;;;;;;;;;;;23.40;36.10;;;;;;475595;249;2061;-44
2023/01/08 07:48:40;;;;;;;;;;;23.10;36.30;;;;;;475587;249;1993;-44
2023/01/08 07:50:42;;;;;;;;;;;22.90;36.80;;;;;;475563;249;1745;-44
2023/01/08 07:52:43;;;;;;;;;;;22.60;37.30;;;;;;475546;249;1732;-44
2023/01/08 07:54:44;;;;;;;;;;;22.30;37.70;;;;;;475582;249;1920;-44
2023/01/08 07:56:46;;;;;;;;;;;22.20;38.10;;;;;;475649;249;2037;-45
2023/01/08 07:58:47;;;;;;;;;;;22.10;38.30;;;;;;475532;249;2192;-45
2023/01/08 08:00:48;;;;;;;;;;;21.90;38.50;;;;;;475552;249;2053;-44
2023/01/08 08:02:49;;;;;;;;;;;21.90;38.70;;;;;;475578;249;2239;-44
2023/01/08 08:04:51;;;;;;;;;;;21.80;38.80;;;;;;475589;249;1785;-44
2023/01/08 08:06:52;;;;;;;;;;;21.70;39.10;;;;;;475550;249;1805;-44
2023/01/08 08:08:54;;;;;;;;;;;21.60;39.20;;;;;;475574;249;1732;-44
2023/01/08 08:10:55;;;;;;;;;;;21.50;39.30;;;;;;475621;249;1872;-45
2023/01/08 08:12:56;;;;;;;;;;;21.50;39.40;;;;;;475579;249;1701;-44
2023/01/08 08:14:57;;;;;;;;;;;21.40;39.50;;;;;;475684;249;1721;-44
2023/01/08 08:16:59;;;;;;;;;;;21.40;39.60;;;;;;475594;249;2117;-44
2023/01/08 08:19:00;;;;;;;;;;;21.30;39.70;;;;;;475573;249;1747;-44
2023/01/08 08:21:02;;;;;;;;;;;21.30;39.70;;;;;;475585;249;1938;-44
2023/01/08 08:23:03;;;;;;;;;;;21.30;39.80;;;;;;475488;250;2200;-44
2023/01/08 08:25:04;;;;;;;;;;;21.20;39.80;;;;;;475634;249;1728;-44
2023/01/08 08:27:05;;;;;;;;;;;21.20;39.90;;;;;;475572;249;1729;-45
2023/01/08 08:29:07;;;;;;;;;;;21.10;40.00;;;;;;475666;249;1969;-45
2023/01/08 08:31:08;;;;;;;;;;;21.40;39.80;;;;;;475597;249;1981;-44
2023/01/08 08:33:09;;;;;;;;;;;21.60;39.20;;;;;;475571;249;1727;-45
2023/01/08 08:35:11;;;;;;;;;;;21.90;38.80;;;;;;475577;249;2018;-45
2023/01/08 08:37:12;;;;;;;;;;;22.00;38.40;;;;;;475507;249;1746;-45
2023/01/08 08:39:13;;;;;;;;;;;22.20;38.10;;;;;;475628;249;2197;-45
2023/01/08 08:41:15;;;;;;;;;;;22.30;37.80;;;;;;475532;249;1772;-44
2023/01/08 08:43:16;;;;;;;;;;;22.40;37.60;;;;;;475600;249;2165;-45
2023/01/08 08:45:17;;;;;;;;;;;22.50;37.40;;;;;;475657;249;1773;-44
2023/01/08 08:47:19;;;;;;;;;;;22.60;37.30;;;;;;475451;249;1873;-45
2023/01/08 08:49:20;;;;;;;;;;;22.60;37.30;;;;;;475707;249;1899;-44
2023/01/08 08:51:21;;;;;;;;;;;22.60;37.30;;;;;;475511;249;2087;-44
2023/01/08 08:53:23;;;;;;;;;;;22.40;37.50;;;;;;475605;249;1722;-45
2023/01/08 08:55:24;;;;;;;;;;;22.10;37.90;;;;;;475711;249;1705;-44
2023/01/08 08:57:25;;;;;;;;;;;21.90;38.30;;;;;;475502;249;1754;-45
2023/01/08 08:59:26;;;;;;;;;;;21.70;38.70;;;;;;475621;249;1631;-45
2023/01/08 09:01:28;;;;;;;;;;;21.60;39.00;;;;;;475677;249;1926;-45
2023/01/08 09:03:29;;;;;;;;;;;21.50;39.20;;;;;;475584;249;2231;-45
2023/01/08 09:05:31;;;;;;;;;;;21.40;39.40;;;;;;475682;249;1748;-45
2023/01/08 09:07:32;;;;;;;;;;;21.30;39.50;;;;;;475672;249;1546;-44
2023/01/08 09:09:33;;;;;;;;;;;21.20;39.70;;;;;;475629;249;2571;-45
2023/01/08 09:11:35;;;;;;;;;;;21.20;39.80;;;;;;475642;249;2165;-44
2023/01/08 09:13:36;;;;;;;;;;;21.20;39.80;;;;;;475595;249;1884;-44
2023/01/08 09:15:37;;;;;;;;;;;21.10;39.90;;;;;;475556;249;1723;-44
2023/01/08 09:17:39;;;;;;;;;;;21.30;39.80;;;;;;475607;249;1883;-44
2023/01/08 09:19:40;;;;;;;;;;;21.50;39.30;;;;;;475654;249;1766;-44
2023/01/08 09:21:41;;;;;;;;;;;21.80;38.80;;;;;;475530;249;2417;-45
2023/01/08 09:23:43;;;;;;;;;;;22.00;38.40;;;;;;475586;249;2164;-45
2023/01/08 09:25:44;;;;;;;;;;;22.10;38.10;;;;;;475544;249;1781;-44
2023/01/08 09:27:45;;;;;;;;;;;22.20;37.80;;;;;;475636;249;1739;-44
2023/01/08 09:29:46;;;;;;;;;;;22.40;37.70;;;;;;475575;249;1738;-44
2023/01/08 09:31:48;;;;;;;;;;;22.50;37.50;;;;;;475612;249;2339;-44
2023/01/08 09:33:49;;;;;;;;;;;22.50;37.30;;;;;;475625;249;2399;-45
2023/01/08 09:35:51;;;;;;;;;;;22.60;37.20;;;;;;475602;249;1757;-45
2023/01/08 09:37:52;;;;;;;;;;;22.60;37.10;;;;;;475653;249;1734;-45
2023/01/08 09:39:53;;;;;;;;;;;22.70;37.00;;;;;;474210;249;1861;-45
2023/01/08 09:41:54;;;;;;;;;;;22.80;37.00;;;;;;475258;249;1697;-45
2023/01/08 09:43:56;;;;;;;;;;;22.80;36.80;;;;;;475557;249;2204;-45
2023/01/08 09:45:57;;;;;;;;;;;22.80;36.70;;;;;;475604;249;1717;-44
2023/01/08 09:47:58;;;;;;;;;;;22.90;36.70;;;;;;475598;249;1692;-45
2023/01/08 09:50:00;;;;;;;;;;;23.00;36.60;;;;;;475593;249;1740;-45
2023/01/08 09:52:02;;;;;;;;;;;23.00;36.50;;;;;;475706;249;1851;-45
2023/01/08 09:54:03;;;;;;;;;;;23.00;36.50;;;;;;475558;250;2228;-45
2023/01/08 09:56:04;;;;;;;;;;;23.00;36.40;;;;;;475604;249;2139;-45
2023/01/08 09:58:05;;;;;;;;;;;23.10;36.40;;;;;;475527;249;2234;-45
2023/01/08 10:00:06;;;;;;;;;;;23.10;36.30;;;;;;475610;249;2004;-45
2023/01/08 10:02:08;;;;;;;;;;;23.10;36.20;;;;;;475573;249;2240;-44
2023/01/08 10:04:09;;;;;;;;;;;23.20;36.30;;;;;;475636;249;2192;-44
2023/01/08 10:06:10;;;;;;;;;;;23.20;36.20;;;;;;475625;249;1961;-44
2023/01/08 10:08:12;;;;;;;;;;;23.20;36.10;;;;;;475608;249;2132;-45
2023/01/08 10:10:13;;;;;;;;;;;23.20;36.10;;;;;;475642;249;1956;-45
2023/01/08 10:12:14;;;;;;;;;;;23.30;36.10;;;;;;475651;249;1934;-45
2023/01/08 10:14:16;;;;;;;;;;;23.30;36.10;;;;;;475656;249;1710;-44
2023/01/08 10:16:17;;;;;;;;;;;23.30;36.00;;;;;;475705;249;1896;-45
2023/01/08 10:18:18;;;;;;;;;;;23.30;36.00;;;;;;475615;249;1707;-45
2023/01/08 10:20:20;;;;;;;;;;;23.30;36.00;;;;;;475686;249;1753;-44
2023/01/08 10:22:21;;;;;;;;;;;23.30;35.90;;;;;;475599;249;1766;-44
2023/01/08 10:24:22;;;;;;;;;;;23.40;35.90;;;;;;475618;249;2195;-45
2023/01/08 10:26:24;;;;;;;;;;;23.40;35.90;;;;;;475605;249;1893;-45
2023/01/08 10:28:25;;;;;;;;;;;23.40;35.90;;;;;;475588;249;1916;-45
2023/01/08 10:30:26;;;;;;;;;;;23.40;35.80;;;;;;475576;249;2156;-45
2023/01/08 10:32:28;;;;;;;;;;;23.40;35.80;;;;;;475561;249;1869;-45
2023/01/08 10:34:29;;;;;;;;;;;23.50;35.80;;;;;;475622;249;1719;-45
2023/01/08 10:36:30;;;;;;;;;;;23.40;35.80;;;;;;475629;249;1730;-44
2023/01/08 10:38:32;;;;;;;;;;;23.40;35.80;;;;;;475536;249;1963;-45
2023/01/08 10:40:33;;;;;;;;;;;23.40;35.90;;;;;;475617;249;1712;-44
2023/01/08 10:42:34;;;;;;;;;;;23.10;36.30;;;;;;475685;249;1932;-45
2023/01/08 10:44:36;;;;;;;;;;;22.90;36.70;;;;;;475551;249;2200;-45
2023/01/08 10:46:37;;;;;;;;;;;22.60;37.20;;;;;;475574;249;1726;-45
2023/01/08 10:48:38;;;;;;;;;;;22.40;37.60;;;;;;475563;249;1925;-44
2023/01/08 10:50:40;;;;;;;;;;;22.20;37.80;;;;;;475623;249;1696;-45
2023/01/08 10:52:41;;;;;;;;;;;22.20;38.10;;;;;;475584;249;1930;-44
2023/01/08 10:54:42;;;;;;;;;;;22.10;38.10;;;;;;475625;249;1729;-45
2023/01/08 10:56:44;;;;;;;;;;;22.00;38.20;;;;;;475594;249;1833;-44
2023/01/08 10:58:45;;;;;;;;;;;22.00;38.30;;;;;;475669;249;1812;-45
2023/01/08 11:00:46;;;;;;;;;;;22.00;38.30;;;;;;475520;249;1733;-44
2023/01/08 11:02:49;;;;;;;;;;;21.90;38.40;;;;;;475543;249;1801;-45
2023/01/08 11:04:49;;;;;;;;;;;21.90;38.60;;;;;;475544;249;2196;-45
2023/01/08 11:06:51;;;;;;;;;;;21.80;38.60;;;;;;475618;249;1694;-44
2023/01/08 11:08:52;;;;;;;;;;;21.80;38.70;;;;;;475675;249;1745;-44
2023/01/08 11:10:53;;;;;;;;;;;21.70;38.80;;;;;;475727;249;1737;-44
2023/01/08 11:12:55;;;;;;;;;;;21.80;38.80;;;;;;475575;249;1711;-44
2023/01/08 11:14:56;;;;;;;;;;;21.70;38.80;;;;;;475589;249;1754;-45
2023/01/08 11:16:58;;;;;;;;;;;21.70;38.90;;;;;;475687;249;1704;-44
2023/01/08 11:18:59;;;;;;;;;;;21.70;38.90;;;;;;475696;249;1828;-44
2023/01/08 11:21:00;;;;;;;;;;;21.60;38.90;;;;;;475654;249;2247;-45
2023/01/08 11:23:01;;;;;;;;;;;21.60;39.00;;;;;;475586;249;1942;-44
2023/01/08 11:25:03;;;;;;;;;;;21.60;39.00;;;;;;475705;249;2192;-44
2023/01/08 11:27:04;;;;;;;;;;;21.60;39.00;;;;;;475618;249;1832;-45
2023/01/08 11:29:05;;;;;;;;;;;21.60;39.00;;;;;;475591;249;2147;-44
2023/01/08 11:31:07;;;;;;;;;;;21.60;39.10;;;;;;475665;249;1881;-45
2023/01/08 11:33:08;;;;;;;;;;;21.60;39.10;;;;;;475562;249;1701;-45
2023/01/08 11:35:09;;;;;;;;;;;21.60;39.10;;;;;;475605;249;2630;-45
2023/01/08 11:37:11;;;;;;;;;;;21.60;39.10;;;;;;475670;249;1860;-45
2023/01/08 11:39:12;;;;;;;;;;;21.50;39.10;;;;;;475545;249;1690;-45
2023/01/08 11:41:13;;;;;;;;;;;21.50;39.20;;;;;;475700;249;2108;-44
2023/01/08 11:43:15;;;;;;;;;;;21.50;39.20;;;;;;475652;249;2185;-44
2023/01/08 11:45:16;;;;;;;;;;;21.50;39.20;;;;;;475647;249;2220;-44
2023/01/08 11:47:17;;;;;;;;;;;21.50;39.10;;;;;;475670;249;1830;-45
2023/01/08 11:49:19;;;;;;;;;;;21.50;39.20;;;;;;475746;249;1708;-44
2023/01/08 11:51:20;;;;;;;;;;;21.50;39.30;;;;;;475585;249;2055;-45
2023/01/08 11:53:21;;;;;;;;;;;21.40;39.20;;;;;;475700;249;1702;-45
2023/01/08 11:55:23;;;;;;;;;;;21.40;39.30;;;;;;475710;249;2107;-44
2023/01/08 11:57:24;;;;;;;;;;;21.40;39.30;;;;;;475610;249;2227;-44
2023/01/08 11:59:25;;;;;;;;;;;21.40;39.30;;;;;;475662;249;1854;-44